createdAt,value
2019-02-20T00:00:42.570Z,100721.09
2019-02-20T00:05:44.569Z,100718.43
2019-02-20T00:10:46.456Z,100720.74
2019-02-20T00:15:48.347Z,100728.11
2019-02-20T00:20:51.331Z,100733.83
2019-02-20T00:25:54.466Z,100740.23
2019-02-20T00:30:56.351Z,100734.19
2019-02-20T00:35:58.435Z,100747.01
2019-02-20T00:41:00.572Z,100752.29
2019-02-20T00:46:11.557Z,100752.84
2019-02-20T00:56:56.153Z,100759.34
2019-02-20T01:01:58.484Z,100762.97
2019-02-20T01:07:01.384Z,100763.81
2019-02-20T01:12:04.105Z,100764.73
2019-02-20T01:17:12.301Z,100771.42
2019-02-20T01:22:14.336Z,100765.38
2019-02-20T01:27:16.343Z,100757.06
2019-02-20T01:32:18.278Z,100757.48
2019-02-20T01:37:20.163Z,100755.09
2019-02-20T01:42:22.575Z,100757.01
2019-02-20T01:47:24.474Z,100748.42
2019-02-20T01:52:27.905Z,100752.77
2019-02-20T01:57:29.932Z,100752.86
2019-02-20T02:02:31.823Z,100751.14
2019-02-20T02:07:33.713Z,100750.71
2019-02-20T02:12:35.869Z,100752.73
2019-02-20T02:17:37.895Z,100746.42
2019-02-20T02:22:40.910Z,100748.84
2019-02-20T02:27:42.814Z,100746.27
2019-02-20T02:32:44.708Z,100751.69
2019-02-20T02:37:47.836Z,100753.85
2019-02-20T02:42:49.760Z,100748.63
2019-02-20T02:47:51.817Z,100743.92
2019-02-20T02:52:53.756Z,100747.29
2019-02-20T02:57:55.667Z,100747.93
2019-02-20T03:02:57.578Z,100750.58
2019-02-20T03:07:59.458Z,100745.80
2019-02-20T03:13:01.736Z,100745.31
2019-02-20T03:18:03.762Z,100754.77
2019-02-20T03:23:05.855Z,100763.23
2019-02-20T03:28:07.770Z,100766.22
2019-02-20T03:33:09.667Z,100769.26
2019-02-20T03:38:11.582Z,100774.67
2019-02-20T03:43:13.490Z,100773.66
2019-02-20T03:48:15.445Z,100776.78
2019-02-20T03:53:17.404Z,100778.83
2019-02-20T03:58:19.489Z,100788.97
2019-02-20T04:03:21.353Z,100783.58
2019-02-20T04:08:23.246Z,100781.26
2019-02-20T04:13:25.154Z,100789.44
2019-02-20T04:18:27.261Z,100795.08
2019-02-20T04:23:29.349Z,100794.58
2019-02-20T04:28:31.263Z,100798.80
2019-02-20T04:33:33.207Z,100799.84
2019-02-20T04:38:35.086Z,100809.05
2019-02-20T04:43:37.020Z,100804.02
2019-02-20T04:48:39.150Z,100800.38
2019-02-20T04:53:41.084Z,100793.66
2019-02-20T04:58:44.176Z,100798.73
2019-02-20T05:03:46.381Z,100789.81
2019-02-20T05:08:48.372Z,100792.62
2019-02-20T05:13:50.276Z,100801.44
2019-02-20T05:18:52.468Z,100802.30
2019-02-20T05:23:54.416Z,100805.20
2019-02-20T05:28:56.534Z,100809.53
2019-02-20T05:33:58.456Z,100802.41
2019-02-20T05:39:00.374Z,100805.81
2019-02-20T05:44:02.272Z,100812.33
2019-02-20T05:49:04.246Z,100813.78
2019-02-20T05:54:06.309Z,100811.77
2019-02-20T05:59:08.268Z,100810.37
2019-02-20T06:04:10.292Z,100819.85
2019-02-20T06:09:12.173Z,100831.20
2019-02-20T06:14:14.276Z,100831.69
2019-02-20T06:19:16.675Z,100830.00
2019-02-20T06:24:18.563Z,100840.30
2019-02-20T06:29:21.605Z,100848.43
2019-02-20T06:34:23.636Z,100859.06
2019-02-20T06:39:25.545Z,100857.84
2019-02-20T06:44:27.992Z,100857.47
2019-02-20T06:49:29.912Z,100861.96
2019-02-20T06:54:31.828Z,100874.40
2019-02-20T06:59:33.758Z,100880.92
2019-02-20T07:04:35.853Z,100878.52
2019-02-20T07:10:25.041Z,100884.45
2019-02-20T07:15:57.512Z,100890.52
2019-02-20T07:21:47.712Z,100899.86
2019-02-20T07:27:28.226Z,100901.11
2019-02-20T07:32:30.847Z,100903.42
2019-02-20T07:37:32.857Z,100911.42
2019-02-20T07:42:35.940Z,100919.19
2019-02-20T07:47:50.822Z,100928.05
2019-02-20T07:52:53.035Z,100938.59
2019-02-20T07:57:54.952Z,100934.84
2019-02-20T08:02:56.881Z,100944.30
2019-02-20T08:07:59.872Z,100950.47
2019-02-20T08:13:01.863Z,100956.02
2019-02-20T08:18:04.772Z,100959.43
2019-02-20T08:23:06.650Z,100960.47
2019-02-20T08:28:08.579Z,100962.14
2019-02-20T08:33:10.497Z,100970.44
2019-02-20T08:38:12.373Z,100973.84
2019-02-20T08:43:14.260Z,100981.97
2019-02-20T08:48:16.203Z,100986.37
2019-02-20T08:53:18.096Z,100989.03
2019-02-20T08:58:20.256Z,100995.78
2019-02-20T09:03:22.246Z,100995.31
2019-02-20T09:08:25.537Z,100992.53
2019-02-20T09:13:27.419Z,101000.08
2019-02-20T09:18:29.344Z,101007.16
2019-02-20T09:23:31.321Z,101001.66
2019-02-20T09:28:33.279Z,101002.80
2019-02-20T09:33:35.193Z,101009.31
2019-02-20T09:38:37.078Z,101011.34
2019-02-20T09:43:38.984Z,101013.67
2019-02-20T09:48:40.917Z,101012.95
2019-02-20T09:53:42.810Z,101024.95
2019-02-20T09:58:44.784Z,101035.17
2019-02-20T10:03:46.793Z,101035.14
2019-02-20T10:08:48.681Z,101038.33
2019-02-20T10:13:50.589Z,101046.50
2019-02-20T10:18:52.518Z,101051.59
2019-02-20T10:23:54.402Z,101046.53
2019-02-20T10:28:56.342Z,101049.30
2019-02-20T10:33:58.226Z,101052.42
2019-02-20T10:39:00.294Z,101054.90
2019-02-20T10:44:02.198Z,101052.72
2019-02-20T10:49:05.185Z,101041.80
2019-02-20T10:54:07.130Z,101055.69
2019-02-20T10:59:10.168Z,101053.91
2019-02-20T11:04:12.059Z,101036.38
2019-02-20T11:09:13.988Z,101045.88
2019-02-20T11:14:15.888Z,101044.59
2019-02-20T11:19:17.798Z,101041.39
2019-02-20T11:24:19.774Z,101043.28
2019-02-20T11:29:21.712Z,101034.95
2019-02-20T11:34:23.926Z,101032.22
2019-02-20T11:39:25.922Z,101041.02
2019-02-20T11:44:27.819Z,101022.44
2019-02-20T11:49:30.884Z,101042.33
2019-02-20T11:54:32.764Z,101043.12
2019-02-20T11:59:34.747Z,101030.52
2019-02-20T12:04:36.784Z,101033.79
2019-02-20T12:09:38.883Z,101024.38
2019-02-20T12:14:40.788Z,101021.77
2019-02-20T12:19:43.061Z,101031.12
2019-02-20T12:24:46.960Z,101011.29
2019-02-20T12:29:49.096Z,101023.48
2019-02-20T12:34:51.203Z,101027.48
2019-02-20T12:39:53.130Z,101023.48
2019-02-20T12:44:55.027Z,101024.60
2019-02-20T12:49:56.948Z,101023.97
2019-02-20T12:54:58.832Z,101029.95
2019-02-20T13:00:00.879Z,101035.05
2019-02-20T13:05:03.167Z,101025.48
2019-02-20T13:10:05.703Z,101030.38
2019-02-20T13:15:07.880Z,101023.65
2019-02-20T13:20:11.156Z,101015.66
2019-02-20T13:25:13.151Z,101009.20
2019-02-20T13:30:15.164Z,101003.67
2019-02-20T13:35:18.668Z,101012.14
2019-02-20T13:40:21.088Z,101012.33
2019-02-20T13:45:23.164Z,101034.31
2019-02-20T13:50:25.084Z,101022.28
2019-02-20T13:55:34.248Z,101018.61
2019-02-20T14:00:31.157Z,101019.62
2019-02-20T14:05:33.192Z,101012.09
2019-02-20T14:10:35.298Z,101019.72
2019-02-20T14:15:37.258Z,101012.55
2019-02-20T14:20:39.665Z,101007.98
2019-02-20T14:25:41.550Z,101009.28
2019-02-20T14:30:43.574Z,101012.30
2019-02-20T14:35:45.801Z,101004.58
2019-02-20T14:40:48.293Z,101005.77
2019-02-20T14:45:50.262Z,101003.66
2019-02-20T14:50:52.342Z,101009.72
2019-02-20T14:55:54.247Z,101011.27
2019-02-20T15:00:57.639Z,101016.45
2019-02-20T15:05:59.538Z,101020.53
2019-02-20T15:11:01.533Z,101026.45
2019-02-20T15:16:03.565Z,101036.56
2019-02-20T15:21:05.471Z,101035.22
2019-02-20T15:26:07.700Z,101031.09
2019-02-20T15:31:09.663Z,101018.27
2019-02-20T15:36:12.792Z,101020.95
2019-02-20T15:41:15.298Z,101026.16
2019-02-20T15:46:17.317Z,101026.05
2019-02-20T15:51:19.211Z,101028.85
2019-02-20T15:56:21.322Z,101034.56
2019-02-20T16:01:23.253Z,101036.87
2019-02-20T16:06:25.182Z,101050.48
2019-02-20T16:11:27.063Z,101043.83
2019-02-20T16:16:29.088Z,101057.44
2019-02-20T16:21:30.997Z,101065.05
2019-02-20T16:26:32.873Z,101066.45
2019-02-20T16:31:34.770Z,101075.38
2019-02-20T16:36:36.997Z,101068.58
2019-02-20T16:41:38.965Z,101080.02
2019-02-20T16:46:40.861Z,101082.08
2019-02-20T16:51:44.090Z,101080.95
2019-02-20T16:56:46.100Z,101085.05
2019-02-20T17:01:48.124Z,101085.44
2019-02-20T17:06:50.196Z,101089.55
2019-02-20T17:11:52.284Z,101101.41
2019-02-20T17:16:54.600Z,101110.81
2019-02-20T17:21:56.592Z,101114.78
2019-02-20T17:26:59.731Z,101111.11
2019-02-20T17:32:01.626Z,101116.53
2019-02-20T17:37:04.751Z,101115.76
2019-02-20T17:42:06.657Z,101121.31
2019-02-20T17:47:08.560Z,101131.73
2019-02-20T17:52:10.725Z,101130.20
2019-02-20T17:57:13.643Z,101135.80
2019-02-20T18:02:15.551Z,101136.79
2019-02-20T18:07:17.585Z,101136.14
2019-02-20T18:12:19.529Z,101146.25
2019-02-20T18:17:23.515Z,101139.13
2019-02-20T18:22:25.550Z,101148.56
2019-02-20T18:27:59.689Z,101161.39
2019-02-20T18:33:01.819Z,101161.58
2019-02-20T18:38:03.823Z,101163.61
2019-02-20T18:43:05.764Z,101167.28
2019-02-20T18:48:07.663Z,101166.03
2019-02-20T18:53:09.661Z,101171.84
2019-02-20T18:58:11.864Z,101168.07
2019-02-20T19:03:15.176Z,101172.20
2019-02-20T19:08:42.981Z,101173.52
2019-02-20T19:14:00.423Z,101181.55
2019-02-20T19:19:56.234Z,101181.22
2019-02-20T19:25:45.332Z,101185.82
2019-02-20T19:31:32.165Z,101187.27
2019-02-20T19:37:19.290Z,101186.00
2019-02-20T19:42:58.298Z,101196.12
2019-02-20T19:48:34.382Z,101195.16
2019-02-20T19:53:57.525Z,101197.32
2019-02-20T20:00:02.977Z,101194.00
2019-02-20T20:05:59.947Z,101194.76
2019-02-20T20:11:14.333Z,101199.55
2019-02-20T20:16:54.187Z,101197.54
2019-02-20T20:22:41.466Z,101202.63
2019-02-20T20:28:49.969Z,101194.39
2019-02-20T20:34:27.591Z,101204.58
2019-02-20T20:39:40.908Z,101193.71
2019-02-20T20:45:03.691Z,101195.91
2019-02-20T20:50:59.987Z,101195.70
2019-02-20T20:56:29.123Z,101197.32
2019-02-20T21:01:41.874Z,101191.95
2019-02-20T21:07:00.462Z,101185.30
2019-02-20T21:12:30.626Z,101189.47
2019-02-20T21:18:10.477Z,101186.34
2019-02-20T21:23:54.528Z,101187.09
2019-02-20T21:29:27.842Z,101185.19
2019-02-20T21:34:50.096Z,101188.36
2019-02-20T21:40:01.795Z,101184.28
2019-02-20T21:46:11.540Z,101192.09
2019-02-20T21:51:47.616Z,101188.20
2019-02-20T21:56:59.040Z,101195.50
2019-02-20T22:02:22.616Z,101193.92
2019-02-20T22:07:53.548Z,101195.36
2019-02-20T22:13:40.793Z,101197.95
2019-02-20T22:18:59.572Z,101194.19
2019-02-20T22:24:45.056Z,101193.45
2019-02-20T22:30:29.229Z,101198.20
2019-02-20T22:36:16.563Z,101186.91
2019-02-20T22:42:03.692Z,101195.02
2019-02-20T22:47:34.373Z,101191.84
2019-02-20T22:53:11.665Z,101191.61
2019-02-20T22:58:51.572Z,101189.69
2019-02-20T23:04:24.127Z,101185.78
2019-02-20T23:09:52.639Z,101192.36
2019-02-20T23:14:55.952Z,101193.41
2019-02-20T23:19:59.096Z,101203.00
2019-02-20T23:25:01.007Z,101206.16
2019-02-20T23:30:12.566Z,101215.61
2019-02-20T23:35:08.970Z,101221.00
2019-02-20T23:40:11.379Z,101228.14
2019-02-20T23:45:13.294Z,101235.66
2019-02-20T23:50:15.212Z,101237.22
2019-02-20T23:55:17.125Z,101240.28
